sensor_id;sensor_type;location;lat;lon;timestamp;P1;durP1;ratioP1;P2;durP2;ratioP2
39846;SDS011;25517;52.422;10.782;2024-01-15T00:01:55;34.42;;;16.55;;
39846;SDS011;25517;52.422;10.782;2024-01-15T00:04:21;31.42;;;17.10;;
39846;SDS011;25517;52.422;10.782;2024-01-15T00:06:47;30.88;;;17.20;;
39846;SDS011;25517;52.422;10.782;2024-01-15T00:09:14;34.85;;;16.88;;
39846;SDS011;25517;52.422;10.782;2024-01-15T00:11:39;31.25;;;16.75;;
39846;SDS011;25517;52.422;10.782;2024-01-15T00:14:05;37.70;;;17.35;;
39846;SDS011;25517;52.422;10.782;2024-01-15T00:16:31;34.33;;;16.35;;
39846;SDS011;25517;52.422;10.782;2024-01-15T00:18:56;29.98;;;15.32;;
39846;SDS011;25517;52.422;10.782;2024-01-15T00:21:22;33.38;;;15.07;;
39846;SDS011;25517;52.422;10.782;2024-01-15T00:23:48;33.58;;;15.05;;
39846;SDS011;25517;52.422;10.782;2024-01-15T00:26:13;31.38;;;14.10;;
39846;SDS011;25517;52.422;10.782;2024-01-15T00:28:40;28.48;;;15.10;;
39846;SDS011;25517;52.422;10.782;2024-01-15T00:31:05;29.08;;;13.80;;
39846;SDS011;25517;52.422;10.782;2024-01-15T00:33:31;25.42;;;13.18;;
39846;SDS011;25517;52.422;10.782;2024-01-15T00:35:57;25.27;;;13.18;;
39846;SDS011;25517;52.422;10.782;2024-01-15T00:38:22;23.00;;;13.35;;
39846;SDS011;25517;52.422;10.782;2024-01-15T00:40:48;27.67;;;14.02;;
39846;SDS011;25517;52.422;10.782;2024-01-15T00:43:14;27.30;;;13.10;;
39846;SDS011;25517;52.422;10.782;2024-01-15T00:45:40;25.13;;;11.70;;
39846;SDS011;25517;52.422;10.782;2024-01-15T00:48:05;23.83;;;11.27;;
39846;SDS011;25517;52.422;10.782;2024-01-15T00:50:31;20.60;;;10.77;;
39846;SDS011;25517;52.422;10.782;2024-01-15T00:52:57;25.67;;;12.40;;
39846;SDS011;25517;52.422;10.782;2024-01-15T00:55:22;22.15;;;10.65;;
39846;SDS011;25517;52.422;10.782;2024-01-15T00:57:48;28.50;;;11.55;;
39846;SDS011;25517;52.422;10.782;2024-01-15T01:00:14;23.95;;;11.80;;
39846;SDS011;25517;52.422;10.782;2024-01-15T01:02:40;21.48;;;10.35;;
39846;SDS011;25517;52.422;10.782;2024-01-15T01:05:05;21.13;;;10.45;;
39846;SDS011;25517;52.422;10.782;2024-01-15T01:07:31;20.73;;;10.82;;
39846;SDS011;25517;52.422;10.782;2024-01-15T01:09:57;17.85;;;8.48;;
39846;SDS011;25517;52.422;10.782;2024-01-15T01:12:22;17.80;;;8.43;;
39846;SDS011;25517;52.422;10.782;2024-01-15T01:14:48;16.15;;;9.00;;
39846;SDS011;25517;52.422;10.782;2024-01-15T01:17:13;23.42;;;9.00;;
39846;SDS011;25517;52.422;10.782;2024-01-15T01:19:39;17.15;;;8.98;;
39846;SDS011;25517;52.422;10.782;2024-01-15T01:22:05;20.08;;;9.07;;
39846;SDS011;25517;52.422;10.782;2024-01-15T01:24:30;21.70;;;8.85;;
39846;SDS011;25517;52.422;10.782;2024-01-15T01:26:56;25.20;;;10.65;;
39846;SDS011;25517;52.422;10.782;2024-01-15T01:29:21;19.38;;;8.95;;
39846;SDS011;25517;52.422;10.782;2024-01-15T01:31:48;17.27;;;8.80;;
39846;SDS011;25517;52.422;10.782;2024-01-15T01:34:14;16.05;;;9.25;;
39846;SDS011;25517;52.422;10.782;2024-01-15T01:36:40;17.30;;;8.73;;
39846;SDS011;25517;52.422;10.782;2024-01-15T01:39:06;16.83;;;9.40;;
39846;SDS011;25517;52.422;10.782;2024-01-15T01:41:31;19.13;;;9.00;;
39846;SDS011;25517;52.422;10.782;2024-01-15T01:43:57;23.75;;;8.43;;
39846;SDS011;25517;52.422;10.782;2024-01-15T01:46:23;14.15;;;8.18;;
39846;SDS011;25517;52.422;10.782;2024-01-15T01:48:51;21.00;;;8.40;;
39846;SDS011;25517;52.422;10.782;2024-01-15T01:51:17;20.00;;;7.88;;
39846;SDS011;25517;52.422;10.782;2024-01-15T01:53:43;17.38;;;8.18;;
39846;SDS011;25517;52.422;10.782;2024-01-15T01:56:10;19.30;;;7.03;;
39846;SDS011;25517;52.422;10.782;2024-01-15T01:58:37;18.65;;;7.18;;
39846;SDS011;25517;52.422;10.782;2024-01-15T02:01:03;22.77;;;7.72;;
39846;SDS011;25517;52.422;10.782;2024-01-15T02:03:30;17.75;;;5.80;;
39846;SDS011;25517;52.422;10.782;2024-01-15T02:05:56;16.17;;;6.50;;
39846;SDS011;25517;52.422;10.782;2024-01-15T02:08:21;13.32;;;5.55;;
39846;SDS011;25517;52.422;10.782;2024-01-15T02:10:47;14.18;;;5.85;;
39846;SDS011;25517;52.422;10.782;2024-01-15T02:13:13;12.73;;;6.07;;
39846;SDS011;25517;52.422;10.782;2024-01-15T02:15:39;18.67;;;6.60;;
39846;SDS011;25517;52.422;10.782;2024-01-15T02:18:05;14.00;;;5.35;;
39846;SDS011;25517;52.422;10.782;2024-01-15T02:20:34;14.27;;;5.50;;
39846;SDS011;25517;52.422;10.782;2024-01-15T02:23:03;13.25;;;5.47;;
39846;SDS011;25517;52.422;10.782;2024-01-15T02:25:31;17.23;;;5.35;;
39846;SDS011;25517;52.422;10.782;2024-01-15T02:27:57;17.38;;;5.80;;
39846;SDS011;25517;52.422;10.782;2024-01-15T02:30:23;12.23;;;5.43;;
39846;SDS011;25517;52.422;10.782;2024-01-15T02:32:50;21.92;;;5.97;;
39846;SDS011;25517;52.422;10.782;2024-01-15T02:35:16;17.35;;;6.28;;
39846;SDS011;25517;52.422;10.782;2024-01-15T02:37:42;21.15;;;5.50;;
39846;SDS011;25517;52.422;10.782;2024-01-15T02:40:08;26.67;;;5.68;;
39846;SDS011;25517;52.422;10.782;2024-01-15T02:42:34;12.38;;;4.65;;
39846;SDS011;25517;52.422;10.782;2024-01-15T02:44:59;17.90;;;4.88;;
39846;SDS011;25517;52.422;10.782;2024-01-15T02:47:25;16.85;;;4.30;;
39846;SDS011;25517;52.422;10.782;2024-01-15T02:49:50;18.50;;;4.22;;
39846;SDS011;25517;52.422;10.782;2024-01-15T02:52:16;14.20;;;3.75;;
39846;SDS011;25517;52.422;10.782;2024-01-15T02:54:42;15.82;;;4.43;;
39846;SDS011;25517;52.422;10.782;2024-01-15T02:57:07;16.67;;;4.60;;
39846;SDS011;25517;52.422;10.782;2024-01-15T02:59:33;9.32;;;3.88;;
39846;SDS011;25517;52.422;10.782;2024-01-15T03:01:59;9.23;;;3.85;;
39846;SDS011;25517;52.422;10.782;2024-01-15T03:04:24;11.15;;;3.60;;
39846;SDS011;25517;52.422;10.782;2024-01-15T03:06:50;10.52;;;3.45;;
39846;SDS011;25517;52.422;10.782;2024-01-15T03:09:15;16.70;;;3.75;;
39846;SDS011;25517;52.422;10.782;2024-01-15T03:11:41;16.92;;;4.10;;
39846;SDS011;25517;52.422;10.782;2024-01-15T03:14:06;11.02;;;3.20;;
39846;SDS011;25517;52.422;10.782;2024-01-15T03:16:32;14.18;;;2.83;;
39846;SDS011;25517;52.422;10.782;2024-01-15T03:18:58;10.68;;;3.40;;
39846;SDS011;25517;52.422;10.782;2024-01-15T03:21:23;15.77;;;4.38;;
39846;SDS011;25517;52.422;10.782;2024-01-15T03:23:49;10.82;;;3.47;;
39846;SDS011;25517;52.422;10.782;2024-01-15T03:26:14;17.85;;;3.13;;
39846;SDS011;25517;52.422;10.782;2024-01-15T03:28:40;20.20;;;3.70;;
39846;SDS011;25517;52.422;10.782;2024-01-15T03:31:06;13.05;;;3.13;;
39846;SDS011;25517;52.422;10.782;2024-01-15T03:33:32;12.95;;;3.40;;
39846;SDS011;25517;52.422;10.782;2024-01-15T03:35:58;13.65;;;4.00;;
39846;SDS011;25517;52.422;10.782;2024-01-15T03:38:24;12.40;;;3.33;;
39846;SDS011;25517;52.422;10.782;2024-01-15T03:40:50;19.88;;;4.80;;
39846;SDS011;25517;52.422;10.782;2024-01-15T03:43:15;14.90;;;3.30;;
39846;SDS011;25517;52.422;10.782;2024-01-15T03:45:41;11.60;;;3.05;;
39846;SDS011;25517;52.422;10.782;2024-01-15T03:48:06;12.02;;;4.13;;
39846;SDS011;25517;52.422;10.782;2024-01-15T03:50:32;12.55;;;3.50;;
39846;SDS011;25517;52.422;10.782;2024-01-15T03:52:57;19.98;;;3.95;;
39846;SDS011;25517;52.422;10.782;2024-01-15T03:55:23;16.33;;;4.07;;
39846;SDS011;25517;52.422;10.782;2024-01-15T03:57:49;14.57;;;2.78;;
39846;SDS011;25517;52.422;10.782;2024-01-15T04:00:14;20.20;;;3.20;;
39846;SDS011;25517;52.422;10.782;2024-01-15T04:02:42;17.90;;;3.30;;
39846;SDS011;25517;52.422;10.782;2024-01-15T04:05:09;12.93;;;2.83;;
39846;SDS011;25517;52.422;10.782;2024-01-15T04:07:34;10.57;;;2.90;;
39846;SDS011;25517;52.422;10.782;2024-01-15T04:10:00;19.60;;;4.05;;
39846;SDS011;25517;52.422;10.782;2024-01-15T04:12:26;11.00;;;3.60;;
39846;SDS011;25517;52.422;10.782;2024-01-15T04:14:51;15.85;;;3.38;;
39846;SDS011;25517;52.422;10.782;2024-01-15T04:17:17;15.05;;;2.53;;
39846;SDS011;25517;52.422;10.782;2024-01-15T04:19:45;8.93;;;2.53;;
39846;SDS011;25517;52.422;10.782;2024-01-15T04:22:12;13.27;;;2.35;;
39846;SDS011;25517;52.422;10.782;2024-01-15T04:24:38;11.65;;;2.53;;
39846;SDS011;25517;52.422;10.782;2024-01-15T04:27:04;15.63;;;1.88;;
39846;SDS011;25517;52.422;10.782;2024-01-15T04:29:30;10.00;;;2.70;;
39846;SDS011;25517;52.422;10.782;2024-01-15T04:31:56;10.98;;;2.72;;
39846;SDS011;25517;52.422;10.782;2024-01-15T04:34:21;12.82;;;4.05;;
39846;SDS011;25517;52.422;10.782;2024-01-15T04:36:47;7.00;;;2.33;;
39846;SDS011;25517;52.422;10.782;2024-01-15T04:39:12;16.90;;;2.30;;
39846;SDS011;25517;52.422;10.782;2024-01-15T04:41:38;10.82;;;2.10;;
39846;SDS011;25517;52.422;10.782;2024-01-15T04:44:03;12.43;;;2.45;;
39846;SDS011;25517;52.422;10.782;2024-01-15T04:46:29;9.70;;;2.58;;
39846;SDS011;25517;52.422;10.782;2024-01-15T04:48:55;15.98;;;2.47;;
39846;SDS011;25517;52.422;10.782;2024-01-15T04:51:20;17.58;;;2.65;;
39846;SDS011;25517;52.422;10.782;2024-01-15T04:53:46;13.77;;;3.03;;
39846;SDS011;25517;52.422;10.782;2024-01-15T04:56:11;17.45;;;3.40;;
39846;SDS011;25517;52.422;10.782;2024-01-15T04:58:37;11.18;;;2.92;;
39846;SDS011;25517;52.422;10.782;2024-01-15T05:01:03;13.55;;;2.92;;
39846;SDS011;25517;52.422;10.782;2024-01-15T05:03:28;15.55;;;2.55;;
39846;SDS011;25517;52.422;10.782;2024-01-15T05:05:54;11.63;;;4.68;;
39846;SDS011;25517;52.422;10.782;2024-01-15T05:08:20;15.52;;;3.10;;
39846;SDS011;25517;52.422;10.782;2024-01-15T05:10:46;12.63;;;2.58;;
39846;SDS011;25517;52.422;10.782;2024-01-15T05:13:12;10.60;;;2.65;;
39846;SDS011;25517;52.422;10.782;2024-01-15T05:15:38;8.30;;;2.72;;
39846;SDS011;25517;52.422;10.782;2024-01-15T05:18:03;18.65;;;3.33;;
39846;SDS011;25517;52.422;10.782;2024-01-15T05:20:29;8.63;;;2.42;;
39846;SDS011;25517;52.422;10.782;2024-01-15T05:22:55;16.52;;;3.08;;
39846;SDS011;25517;52.422;10.782;2024-01-15T05:25:20;11.10;;;2.85;;
39846;SDS011;25517;52.422;10.782;2024-01-15T05:27:46;16.70;;;2.88;;
39846;SDS011;25517;52.422;10.782;2024-01-15T05:30:11;8.65;;;2.33;;
39846;SDS011;25517;52.422;10.782;2024-01-15T05:32:37;9.32;;;3.00;;
39846;SDS011;25517;52.422;10.782;2024-01-15T05:35:03;11.43;;;2.95;;
39846;SDS011;25517;52.422;10.782;2024-01-15T05:37:29;11.15;;;2.88;;
39846;SDS011;25517;52.422;10.782;2024-01-15T05:39:54;14.60;;;2.72;;
39846;SDS011;25517;52.422;10.782;2024-01-15T05:42:20;12.38;;;2.13;;
39846;SDS011;25517;52.422;10.782;2024-01-15T05:44:46;7.95;;;2.35;;
39846;SDS011;25517;52.422;10.782;2024-01-15T05:47:11;13.38;;;3.63;;
39846;SDS011;25517;52.422;10.782;2024-01-15T05:49:37;17.13;;;2.72;;
39846;SDS011;25517;52.422;10.782;2024-01-15T05:52:02;6.22;;;2.42;;
39846;SDS011;25517;52.422;10.782;2024-01-15T05:54:29;9.23;;;2.60;;
39846;SDS011;25517;52.422;10.782;2024-01-15T05:56:54;20.17;;;4.28;;
39846;SDS011;25517;52.422;10.782;2024-01-15T05:59:20;9.88;;;3.22;;
39846;SDS011;25517;52.422;10.782;2024-01-15T06:01:45;13.63;;;4.03;;
39846;SDS011;25517;52.422;10.782;2024-01-15T06:04:11;21.92;;;3.40;;
39846;SDS011;25517;52.422;10.782;2024-01-15T06:06:36;20.10;;;3.70;;
39846;SDS011;25517;52.422;10.782;2024-01-15T06:09:02;15.05;;;2.58;;
39846;SDS011;25517;52.422;10.782;2024-01-15T06:11:31;16.88;;;2.97;;
39846;SDS011;25517;52.422;10.782;2024-01-15T06:13:57;17.00;;;2.97;;
39846;SDS011;25517;52.422;10.782;2024-01-15T06:16:23;11.43;;;2.38;;
39846;SDS011;25517;52.422;10.782;2024-01-15T06:18:49;7.97;;;2.53;;
39846;SDS011;25517;52.422;10.782;2024-01-15T06:21:15;12.95;;;3.15;;
39846;SDS011;25517;52.422;10.782;2024-01-15T06:23:41;10.80;;;2.75;;
39846;SDS011;25517;52.422;10.782;2024-01-15T06:26:07;12.38;;;3.00;;
39846;SDS011;25517;52.422;10.782;2024-01-15T06:28:33;12.55;;;3.08;;
39846;SDS011;25517;52.422;10.782;2024-01-15T06:30:58;11.98;;;3.13;;
39846;SDS011;25517;52.422;10.782;2024-01-15T06:33:24;14.02;;;3.10;;
39846;SDS011;25517;52.422;10.782;2024-01-15T06:35:50;17.05;;;2.70;;
39846;SDS011;25517;52.422;10.782;2024-01-15T06:38:16;11.98;;;2.38;;
39846;SDS011;25517;52.422;10.782;2024-01-15T06:40:41;17.02;;;2.83;;
39846;SDS011;25517;52.422;10.782;2024-01-15T06:43:10;17.42;;;4.53;;
39846;SDS011;25517;52.422;10.782;2024-01-15T06:45:38;12.60;;;2.60;;
39846;SDS011;25517;52.422;10.782;2024-01-15T06:48:04;13.18;;;3.58;;
39846;SDS011;25517;52.422;10.782;2024-01-15T06:50:30;12.00;;;2.85;;
39846;SDS011;25517;52.422;10.782;2024-01-15T06:52:55;12.07;;;3.20;;
39846;SDS011;25517;52.422;10.782;2024-01-15T06:55:21;9.43;;;3.00;;
39846;SDS011;25517;52.422;10.782;2024-01-15T06:57:46;17.95;;;3.92;;
39846;SDS011;25517;52.422;10.782;2024-01-15T07:00:12;11.13;;;3.30;;
39846;SDS011;25517;52.422;10.782;2024-01-15T07:02:38;10.27;;;2.80;;
39846;SDS011;25517;52.422;10.782;2024-01-15T07:05:04;8.15;;;2.40;;
39846;SDS011;25517;52.422;10.782;2024-01-15T07:07:30;10.52;;;2.63;;
39846;SDS011;25517;52.422;10.782;2024-01-15T07:09:56;8.65;;;3.05;;
39846;SDS011;25517;52.422;10.782;2024-01-15T07:12:21;14.60;;;3.25;;
39846;SDS011;25517;52.422;10.782;2024-01-15T07:14:48;12.10;;;3.15;;
39846;SDS011;25517;52.422;10.782;2024-01-15T07:17:13;13.00;;;4.50;;
39846;SDS011;25517;52.422;10.782;2024-01-15T07:19:39;10.85;;;3.38;;
39846;SDS011;25517;52.422;10.782;2024-01-15T07:22:05;8.98;;;3.17;;
39846;SDS011;25517;52.422;10.782;2024-01-15T07:24:30;9.88;;;3.58;;
39846;SDS011;25517;52.422;10.782;2024-01-15T07:26:56;12.50;;;3.40;;
39846;SDS011;25517;52.422;10.782;2024-01-15T07:29:21;6.95;;;2.83;;
39846;SDS011;25517;52.422;10.782;2024-01-15T07:31:50;11.63;;;3.97;;
39846;SDS011;25517;52.422;10.782;2024-01-15T07:34:16;20.75;;;3.65;;
39846;SDS011;25517;52.422;10.782;2024-01-15T07:36:46;8.88;;;3.08;;
39846;SDS011;25517;52.422;10.782;2024-01-15T07:39:11;18.02;;;3.88;;
39846;SDS011;25517;52.422;10.782;2024-01-15T07:41:37;17.83;;;4.32;;
39846;SDS011;25517;52.422;10.782;2024-01-15T07:44:03;14.80;;;3.40;;
39846;SDS011;25517;52.422;10.782;2024-01-15T07:46:29;15.40;;;3.83;;
39846;SDS011;25517;52.422;10.782;2024-01-15T07:48:55;14.93;;;3.83;;
39846;SDS011;25517;52.422;10.782;2024-01-15T07:51:22;15.63;;;4.22;;
39846;SDS011;25517;52.422;10.782;2024-01-15T07:53:53;6.45;;;3.70;;
39846;SDS011;25517;52.422;10.782;2024-01-15T07:56:20;10.10;;;4.18;;
39846;SDS011;25517;52.422;10.782;2024-01-15T07:58:46;14.90;;;4.40;;
39846;SDS011;25517;52.422;10.782;2024-01-15T08:01:12;12.13;;;4.13;;
39846;SDS011;25517;52.422;10.782;2024-01-15T08:03:37;13.05;;;4.25;;
39846;SDS011;25517;52.422;10.782;2024-01-15T08:06:04;11.18;;;4.47;;
39846;SDS011;25517;52.422;10.782;2024-01-15T08:08:30;14.02;;;4.78;;
39846;SDS011;25517;52.422;10.782;2024-01-15T08:10:56;12.90;;;3.67;;
39846;SDS011;25517;52.422;10.782;2024-01-15T08:13:22;14.65;;;4.25;;
39846;SDS011;25517;52.422;10.782;2024-01-15T08:15:47;11.00;;;3.90;;
39846;SDS011;25517;52.422;10.782;2024-01-15T08:18:20;15.43;;;4.35;;
39846;SDS011;25517;52.422;10.782;2024-01-15T08:20:46;10.85;;;3.80;;
39846;SDS011;25517;52.422;10.782;2024-01-15T08:23:12;10.65;;;3.10;;
39846;SDS011;25517;52.422;10.782;2024-01-15T08:25:38;10.65;;;3.50;;
39846;SDS011;25517;52.422;10.782;2024-01-15T08:28:03;12.98;;;3.33;;
39846;SDS011;25517;52.422;10.782;2024-01-15T08:30:29;16.63;;;3.72;;
39846;SDS011;25517;52.422;10.782;2024-01-15T08:32:55;10.25;;;3.13;;
39846;SDS011;25517;52.422;10.782;2024-01-15T08:35:21;9.73;;;2.88;;
39846;SDS011;25517;52.422;10.782;2024-01-15T08:37:51;13.50;;;2.92;;
39846;SDS011;25517;52.422;10.782;2024-01-15T08:40:17;15.70;;;5.03;;
39846;SDS011;25517;52.422;10.782;2024-01-15T08:42:43;12.85;;;3.80;;
39846;SDS011;25517;52.422;10.782;2024-01-15T08:45:09;6.75;;;2.50;;
39846;SDS011;25517;52.422;10.782;2024-01-15T08:47:35;12.85;;;3.50;;
39846;SDS011;25517;52.422;10.782;2024-01-15T08:50:01;11.48;;;3.55;;
39846;SDS011;25517;52.422;10.782;2024-01-15T08:52:28;11.00;;;4.68;;
39846;SDS011;25517;52.422;10.782;2024-01-15T08:54:54;8.60;;;3.70;;
39846;SDS011;25517;52.422;10.782;2024-01-15T08:57:20;9.85;;;4.28;;
39846;SDS011;25517;52.422;10.782;2024-01-15T08:59:47;10.52;;;4.07;;
39846;SDS011;25517;52.422;10.782;2024-01-15T09:02:12;9.40;;;4.30;;
39846;SDS011;25517;52.422;10.782;2024-01-15T09:04:38;11.52;;;4.07;;
39846;SDS011;25517;52.422;10.782;2024-01-15T09:07:04;10.95;;;4.78;;
39846;SDS011;25517;52.422;10.782;2024-01-15T09:09:30;10.25;;;5.15;;
39846;SDS011;25517;52.422;10.782;2024-01-15T09:11:55;10.80;;;4.85;;
39846;SDS011;25517;52.422;10.782;2024-01-15T09:14:21;7.43;;;4.95;;
39846;SDS011;25517;52.422;10.782;2024-01-15T09:16:49;9.38;;;4.53;;
39846;SDS011;25517;52.422;10.782;2024-01-15T09:19:14;10.60;;;4.88;;
39846;SDS011;25517;52.422;10.782;2024-01-15T09:21:40;13.25;;;5.00;;
39846;SDS011;25517;52.422;10.782;2024-01-15T09:24:05;16.60;;;5.75;;
39846;SDS011;25517;52.422;10.782;2024-01-15T09:26:31;10.57;;;4.82;;
39846;SDS011;25517;52.422;10.782;2024-01-15T09:28:57;12.32;;;5.70;;
39846;SDS011;25517;52.422;10.782;2024-01-15T09:31:23;13.85;;;5.35;;
39846;SDS011;25517;52.422;10.782;2024-01-15T09:33:49;10.23;;;5.68;;
39846;SDS011;25517;52.422;10.782;2024-01-15T09:36:17;12.77;;;5.70;;
39846;SDS011;25517;52.422;10.782;2024-01-15T09:38:43;12.95;;;5.95;;
39846;SDS011;25517;52.422;10.782;2024-01-15T09:41:08;14.90;;;6.35;;
39846;SDS011;25517;52.422;10.782;2024-01-15T09:43:34;11.02;;;6.20;;
39846;SDS011;25517;52.422;10.782;2024-01-15T09:46:02;16.63;;;6.20;;
39846;SDS011;25517;52.422;10.782;2024-01-15T09:48:28;16.33;;;6.53;;
39846;SDS011;25517;52.422;10.782;2024-01-15T09:50:55;16.25;;;6.60;;
39846;SDS011;25517;52.422;10.782;2024-01-15T09:53:23;15.07;;;5.88;;
39846;SDS011;25517;52.422;10.782;2024-01-15T09:55:50;8.05;;;5.20;;
39846;SDS011;25517;52.422;10.782;2024-01-15T09:58:18;11.45;;;5.45;;
39846;SDS011;25517;52.422;10.782;2024-01-15T10:00:44;9.38;;;6.38;;
39846;SDS011;25517;52.422;10.782;2024-01-15T10:03:12;13.05;;;5.70;;
39846;SDS011;25517;52.422;10.782;2024-01-15T10:05:38;8.63;;;5.63;;
39846;SDS011;25517;52.422;10.782;2024-01-15T10:08:04;12.05;;;6.70;;
39846;SDS011;25517;52.422;10.782;2024-01-15T10:10:30;10.70;;;6.55;;
39846;SDS011;25517;52.422;10.782;2024-01-15T10:12:56;15.27;;;8.00;;
39846;SDS011;25517;52.422;10.782;2024-01-15T10:15:23;13.43;;;7.65;;
39846;SDS011;25517;52.422;10.782;2024-01-15T10:17:51;17.25;;;8.00;;
39846;SDS011;25517;52.422;10.782;2024-01-15T10:20:17;15.90;;;7.32;;
39846;SDS011;25517;52.422;10.782;2024-01-15T10:22:43;11.07;;;6.53;;
39846;SDS011;25517;52.422;10.782;2024-01-15T10:25:11;11.70;;;5.88;;
39846;SDS011;25517;52.422;10.782;2024-01-15T10:27:38;22.13;;;5.78;;
39846;SDS011;25517;52.422;10.782;2024-01-15T10:30:04;15.90;;;6.40;;
39846;SDS011;25517;52.422;10.782;2024-01-15T10:32:31;19.65;;;5.82;;
39846;SDS011;25517;52.422;10.782;2024-01-15T10:34:56;15.65;;;5.82;;
39846;SDS011;25517;52.422;10.782;2024-01-15T10:37:23;11.35;;;5.18;;
39846;SDS011;25517;52.422;10.782;2024-01-15T10:39:49;19.35;;;6.18;;
39846;SDS011;25517;52.422;10.782;2024-01-15T10:42:15;22.33;;;6.28;;
39846;SDS011;25517;52.422;10.782;2024-01-15T10:44:43;24.15;;;7.13;;
39846;SDS011;25517;52.422;10.782;2024-01-15T10:47:11;17.88;;;6.35;;
39846;SDS011;25517;52.422;10.782;2024-01-15T10:49:38;15.40;;;5.70;;
39846;SDS011;25517;52.422;10.782;2024-01-15T10:52:04;15.90;;;6.03;;
39846;SDS011;25517;52.422;10.782;2024-01-15T10:54:30;15.63;;;6.43;;
39846;SDS011;25517;52.422;10.782;2024-01-15T10:56:57;14.35;;;4.95;;
39846;SDS011;25517;52.422;10.782;2024-01-15T10:59:23;12.05;;;4.55;;
39846;SDS011;25517;52.422;10.782;2024-01-15T11:01:49;17.58;;;8.00;;
39846;SDS011;25517;52.422;10.782;2024-01-15T11:04:18;10.85;;;4.22;;
39846;SDS011;25517;52.422;10.782;2024-01-15T11:06:45;7.43;;;4.15;;
39846;SDS011;25517;52.422;10.782;2024-01-15T11:09:12;16.90;;;3.80;;
39846;SDS011;25517;52.422;10.782;2024-01-15T11:11:40;9.13;;;4.00;;
39846;SDS011;25517;52.422;10.782;2024-01-15T11:14:08;14.13;;;5.03;;
39846;SDS011;25517;52.422;10.782;2024-01-15T11:16:53;11.18;;;4.07;;
39846;SDS011;25517;52.422;10.782;2024-01-15T11:19:21;12.23;;;4.05;;
39846;SDS011;25517;52.422;10.782;2024-01-15T11:21:47;10.52;;;4.32;;
39846;SDS011;25517;52.422;10.782;2024-01-15T11:24:32;15.40;;;5.20;;
39846;SDS011;25517;52.422;10.782;2024-01-15T11:26:59;10.10;;;4.10;;
39846;SDS011;25517;52.422;10.782;2024-01-15T11:34:20;13.43;;;5.28;;
39846;SDS011;25517;52.422;10.782;2024-01-15T11:39:39;9.98;;;4.80;;
39846;SDS011;25517;52.422;10.782;2024-01-15T11:42:07;11.55;;;5.45;;
39846;SDS011;25517;52.422;10.782;2024-01-15T11:44:34;12.00;;;5.20;;
39846;SDS011;25517;52.422;10.782;2024-01-15T11:47:01;13.43;;;6.18;;
39846;SDS011;25517;52.422;10.782;2024-01-15T11:52:34;13.48;;;5.70;;
39846;SDS011;25517;52.422;10.782;2024-01-15T11:55:07;14.02;;;5.82;;
39846;SDS011;25517;52.422;10.782;2024-01-15T11:57:54;12.68;;;5.88;;
39846;SDS011;25517;52.422;10.782;2024-01-15T12:02:51;13.60;;;5.57;;
39846;SDS011;25517;52.422;10.782;2024-01-15T12:05:17;10.93;;;4.32;;
39846;SDS011;25517;52.422;10.782;2024-01-15T12:07:47;8.70;;;4.87;;
39846;SDS011;25517;52.422;10.782;2024-01-15T12:10:20;14.38;;;3.90;;
39846;SDS011;25517;52.422;10.782;2024-01-15T12:12:55;5.90;;;2.90;;
39846;SDS011;25517;52.422;10.782;2024-01-15T12:15:24;7.97;;;3.17;;
39846;SDS011;25517;52.422;10.782;2024-01-15T12:17:50;7.53;;;3.58;;
39846;SDS011;25517;52.422;10.782;2024-01-15T12:20:19;13.93;;;3.45;;
39846;SDS011;25517;52.422;10.782;2024-01-15T12:22:45;10.07;;;3.55;;
39846;SDS011;25517;52.422;10.782;2024-01-15T12:25:11;10.07;;;3.00;;
39846;SDS011;25517;52.422;10.782;2024-01-15T12:27:36;8.05;;;3.28;;
39846;SDS011;25517;52.422;10.782;2024-01-15T12:30:02;12.43;;;3.25;;
39846;SDS011;25517;52.422;10.782;2024-01-15T12:32:28;11.43;;;3.22;;
39846;SDS011;25517;52.422;10.782;2024-01-15T12:34:55;16.33;;;3.70;;
39846;SDS011;25517;52.422;10.782;2024-01-15T12:37:20;10.38;;;3.70;;
39846;SDS011;25517;52.422;10.782;2024-01-15T12:39:46;8.63;;;2.97;;
39846;SDS011;25517;52.422;10.782;2024-01-15T12:42:16;20.00;;;6.57;;
39846;SDS011;25517;52.422;10.782;2024-01-15T12:44:42;8.97;;;3.17;;
39846;SDS011;25517;52.422;10.782;2024-01-15T12:47:09;13.65;;;3.00;;
39846;SDS011;25517;52.422;10.782;2024-01-15T12:49:38;11.23;;;3.97;;
39846;SDS011;25517;52.422;10.782;2024-01-15T12:52:07;12.40;;;3.53;;
39846;SDS011;25517;52.422;10.782;2024-01-15T12:54:34;11.07;;;4.72;;
39846;SDS011;25517;52.422;10.782;2024-01-15T12:56:59;9.70;;;4.00;;
39846;SDS011;25517;52.422;10.782;2024-01-15T12:59:25;4.72;;;3.05;;
39846;SDS011;25517;52.422;10.782;2024-01-15T13:01:51;10.25;;;3.15;;
39846;SDS011;25517;52.422;10.782;2024-01-15T13:04:23;15.32;;;3.97;;
39846;SDS011;25517;52.422;10.782;2024-01-15T13:06:50;10.73;;;3.03;;
39846;SDS011;25517;52.422;10.782;2024-01-15T13:09:16;22.48;;;3.42;;
39846;SDS011;25517;52.422;10.782;2024-01-15T13:11:43;13.15;;;3.30;;
39846;SDS011;25517;52.422;10.782;2024-01-15T13:14:09;15.43;;;4.25;;
39846;SDS011;25517;52.422;10.782;2024-01-15T13:16:35;8.73;;;2.90;;
39846;SDS011;25517;52.422;10.782;2024-01-15T13:19:01;8.13;;;2.72;;
39846;SDS011;25517;52.422;10.782;2024-01-15T13:21:28;13.40;;;3.63;;
39846;SDS011;25517;52.422;10.782;2024-01-15T13:23:54;10.23;;;3.42;;
39846;SDS011;25517;52.422;10.782;2024-01-15T13:26:20;11.40;;;3.47;;
39846;SDS011;25517;52.422;10.782;2024-01-15T13:28:46;11.75;;;3.20;;
39846;SDS011;25517;52.422;10.782;2024-01-15T13:31:12;7.75;;;3.83;;
39846;SDS011;25517;52.422;10.782;2024-01-15T13:33:38;10.25;;;3.45;;
39846;SDS011;25517;52.422;10.782;2024-01-15T13:36:04;6.65;;;2.90;;
39846;SDS011;25517;52.422;10.782;2024-01-15T13:38:33;12.75;;;3.47;;
39846;SDS011;25517;52.422;10.782;2024-01-15T13:41:02;12.88;;;3.30;;
39846;SDS011;25517;52.422;10.782;2024-01-15T13:43:29;12.52;;;3.38;;
39846;SDS011;25517;52.422;10.782;2024-01-15T13:45:56;16.33;;;3.28;;
39846;SDS011;25517;52.422;10.782;2024-01-15T13:48:21;6.97;;;3.20;;
39846;SDS011;25517;52.422;10.782;2024-01-15T13:50:47;14.32;;;3.17;;
39846;SDS011;25517;52.422;10.782;2024-01-15T13:53:13;13.52;;;3.40;;
39846;SDS011;25517;52.422;10.782;2024-01-15T13:55:38;12.77;;;3.70;;
39846;SDS011;25517;52.422;10.782;2024-01-15T13:58:04;9.35;;;2.83;;
39846;SDS011;25517;52.422;10.782;2024-01-15T14:00:31;8.77;;;3.47;;
39846;SDS011;25517;52.422;10.782;2024-01-15T14:02:57;14.35;;;3.58;;
39846;SDS011;25517;52.422;10.782;2024-01-15T14:05:23;12.32;;;4.68;;
39846;SDS011;25517;52.422;10.782;2024-01-15T14:07:49;11.85;;;5.07;;
39846;SDS011;25517;52.422;10.782;2024-01-15T14:10:15;21.35;;;3.58;;
39846;SDS011;25517;52.422;10.782;2024-01-15T14:12:41;12.45;;;2.83;;
39846;SDS011;25517;52.422;10.782;2024-01-15T14:15:06;14.48;;;3.90;;
39846;SDS011;25517;52.422;10.782;2024-01-15T14:17:33;12.82;;;4.25;;
39846;SDS011;25517;52.422;10.782;2024-01-15T14:19:58;10.65;;;3.05;;
39846;SDS011;25517;52.422;10.782;2024-01-15T14:22:24;13.68;;;2.85;;
39846;SDS011;25517;52.422;10.782;2024-01-15T14:24:50;8.15;;;2.40;;
39846;SDS011;25517;52.422;10.782;2024-01-15T14:27:16;11.05;;;2.85;;
39846;SDS011;25517;52.422;10.782;2024-01-15T14:29:44;10.40;;;2.72;;
39846;SDS011;25517;52.422;10.782;2024-01-15T14:32:11;11.18;;;4.47;;